Time;durP1;ratioP1;P1;durP2;ratioP2;P2;SDS_P1;SDS_P2;PMS_P1;PMS_P2;Temp;Humidity;BMP_temperature;BMP_pressure;BME280_temperature;BME280_humidity;BME280_pressure;Samples;Min_cycle;Max_cycle;Signal;HPM_P1;HPM_P2
2023/03/12 00:00:19;;;;;;;1.30;1.20;;;16.10;54.90;;;;;;4991521;28;20254;-60
2023/03/12 00:03:07;;;;;;;3.15;1.20;;;16.00;54.40;;;;;;4991507;28;20208;-60
2023/03/12 00:05:56;;;;;;;1.25;1.10;;;15.90;54.50;;;;;;4991455;28;20196;-62
2023/03/12 00:08:45;;;;;;;1.35;1.10;;;15.90;54.50;;;;;;4991839;28;20199;-60
2023/03/12 00:11:33;;;;;;;1.17;1.08;;;15.90;54.60;;;;;;4992296;28;20203;-61
2023/03/12 00:14:22;;;;;;;1.35;1.25;;;15.80;54.70;;;;;;4991536;28;20652;-62
2023/03/12 00:17:10;;;;;;;2.55;1.20;;;15.80;54.90;;;;;;4992401;28;20278;-61
2023/03/12 00:19:58;;;;;;;1.15;0.90;;;15.70;54.70;;;;;;4993289;28;20302;-60
2023/03/12 00:22:46;;;;;;;1.02;0.93;;;15.70;54.70;;;;;;4995243;28;20262;-61
2023/03/12 00:25:35;;;;;;;1.00;1.00;;;15.60;55.00;;;;;;4994914;28;20218;-61
2023/03/12 00:28:23;;;;;;;1.10;1.00;;;15.50;55.20;;;;;;4996258;28;20222;-60
2023/03/12 00:31:18;;;;;;;1.85;1.48;;;15.50;55.10;;;;;;4995727;28;20699;-61
2023/03/12 00:34:06;;;;;;;1.23;1.13;;;15.40;56.80;;;;;;4995044;28;20278;-60
2023/03/12 00:36:54;;;;;;;1.33;1.05;;;15.50;57.30;;;;;;4994147;28;20200;-61
2023/03/12 00:39:42;;;;;;;1.30;1.20;;;15.50;57.30;;;;;;4995399;28;20753;-60
2023/03/12 00:42:30;;;;;;;2.08;1.13;;;15.50;57.30;;;;;;4994468;28;20203;-60
2023/03/12 00:45:18;;;;;;;1.42;1.33;;;15.60;57.10;;;;;;4995192;28;20274;-60
2023/03/12 00:48:08;;;;;;;2.33;1.60;;;15.60;57.00;;;;;;4976517;28;20275;-60
2023/03/12 00:50:56;;;;;;;1.58;0.98;;;15.70;56.90;;;;;;4975763;28;20224;-61
2023/03/12 00:53:44;;;;;;;1.17;1.00;;;15.70;56.70;;;;;;4978925;28;20200;-64
2023/03/12 00:56:32;;;;;;;2.72;1.02;;;15.80;56.70;;;;;;4978547;28;20266;-60
2023/03/12 00:59:20;;;;;;;1.10;1.00;;;15.80;56.60;;;;;;4976911;28;20232;-60
2023/03/12 01:02:08;;;;;;;1.58;1.48;;;15.80;56.10;;;;;;4976679;28;20231;-60
2023/03/12 01:04:58;;;;;;;1.10;1.00;;;15.90;55.90;;;;;;4976288;28;20578;-60
2023/03/12 01:07:46;;;;;;;1.40;1.00;;;15.90;55.40;;;;;;4977932;28;20220;-62
2023/03/12 01:10:34;;;;;;;1.77;1.00;;;15.90;55.70;;;;;;4981517;28;20220;-60
2023/03/12 01:13:22;;;;;;;1.38;1.27;;;15.90;54.50;;;;;;4981152;28;20267;-62
2023/03/12 01:16:10;;;;;;;1.35;0.82;;;16.00;54.30;;;;;;4987655;28;20256;-61
2023/03/12 01:19:01;;;;;;;1.30;1.20;;;16.20;70.00;;;;;;4981250;28;20204;-60
2023/03/12 01:21:50;;;;;;;2.83;1.27;;;16.10;54.50;;;;;;4976028;28;20200;-60
2023/03/12 01:24:38;;;;;;;1.23;1.08;;;16.10;54.30;;;;;;4975617;28;20352;-65
2023/03/12 01:27:26;;;;;;;4.22;1.00;;;16.00;54.10;;;;;;4988504;28;20212;-63
2023/03/12 01:30:15;;;;;;;1.23;1.13;;;16.00;54.00;;;;;;4989512;28;20220;-61
2023/03/12 01:33:03;;;;;;;2.85;1.35;;;16.00;54.20;;;;;;4976407;28;20677;-60
2023/03/12 01:35:51;;;;;;;1.98;1.10;;;15.90;54.10;;;;;;4975700;28;20303;-61
2023/03/12 01:38:40;;;;;;;1.55;1.13;;;15.80;54.20;;;;;;4973947;28;20247;-61
2023/03/12 01:41:31;;;;;;;0.90;0.90;;;15.80;53.90;;;;;;4975168;28;20260;-61
2023/03/12 01:44:19;;;;;;;1.08;0.98;;;15.80;54.50;;;;;;4974418;28;20200;-61
2023/03/12 01:47:07;;;;;;;1.15;1.00;;;15.70;54.40;;;;;;5002122;28;20199;-61
2023/03/12 01:49:56;;;;;;;2.03;1.20;;;15.60;54.10;;;;;;5013247;28;20653;-60
2023/03/12 01:52:44;;;;;;;1.55;1.08;;;15.60;54.40;;;;;;5013857;28;20257;-60
2023/03/12 01:55:33;;;;;;;1.27;0.95;;;15.60;54.50;;;;;;5013358;28;20273;-60
2023/03/12 01:58:22;;;;;;;1.42;1.08;;;15.50;54.40;;;;;;5012618;28;20253;-61
2023/03/12 02:01:10;;;;;;;4.18;1.58;;;15.50;54.40;;;;;;5012691;28;20238;-60
2023/03/12 02:04:00;;;;;;;2.45;1.50;;;15.40;54.50;;;;;;5013747;28;20206;-60
2023/03/12 02:06:53;;;;;;;1.63;1.20;;;15.30;55.00;;;;;;5012936;28;20341;-60
2023/03/12 02:09:45;;;;;;;1.20;1.20;;;15.30;57.00;;;;;;5012125;28;20334;-60
2023/03/12 02:12:34;;;;;;;1.30;1.20;;;15.30;57.00;;;;;;5012412;28;20256;-62
2023/03/12 02:15:23;;;;;;;2.13;1.10;;;15.30;57.30;;;;;;5013185;28;20305;-60
2023/03/12 02:18:16;;;;;;;1.90;1.10;;;15.50;57.30;;;;;;5012713;28;20202;-60
2023/03/12 02:21:13;;;;;;;2.20;1.02;;;15.60;57.10;;;;;;5013145;28;20716;-60
2023/03/12 02:24:12;;;;;;;1.75;0.95;;;15.70;56.90;;;;;;5013609;28;20675;-60
2023/03/12 02:27:02;;;;;;;1.17;1.08;;;15.80;56.80;;;;;;5009256;28;20643;-61
2023/03/12 02:29:50;;;;;;;1.17;1.00;;;15.80;56.30;;;;;;4988520;28;20351;-61
2023/03/12 02:32:39;;;;;;;2.35;1.42;;;15.90;56.10;;;;;;4993314;28;20310;-61
2023/03/12 02:35:27;;;;;;;2.08;0.85;;;15.90;56.10;;;;;;4992608;28;20228;-60
2023/03/12 02:38:39;;;;;;;1.02;0.98;;;15.90;56.00;;;;;;4993258;28;20203;-60
2023/03/12 02:41:30;;;;;;;1.77;1.00;;;16.00;56.00;;;;;;4992833;28;20203;-60
2023/03/12 02:44:23;;;;;;;2.55;1.30;;;16.00;55.60;;;;;;4993124;28;20249;-61
2023/03/12 02:47:11;;;;;;;3.47;1.17;;;16.00;55.40;;;;;;5007729;28;20237;-60
2023/03/12 02:50:00;;;;;;;2.20;1.13;;;16.00;55.60;;;;;;5012484;28;20678;-63
2023/03/12 02:52:48;;;;;;;2.03;1.73;;;16.00;55.40;;;;;;5012845;28;20682;-61
2023/03/12 02:55:36;;;;;;;2.08;1.00;;;16.10;55.50;;;;;;5012421;28;20215;-61
2023/03/12 02:58:24;;;;;;;2.45;0.85;;;16.10;55.00;;;;;;5012666;28;20202;-61
2023/03/12 03:01:13;;;;;;;2.05;1.00;;;16.10;54.20;;;;;;5013107;28;20308;-61
2023/03/12 03:04:02;;;;;;;1.45;1.10;;;16.10;54.30;;;;;;5013306;28;20243;-61
2023/03/12 03:06:51;;;;;;;2.35;0.98;;;16.00;54.30;;;;;;5013146;28;20277;-61
2023/03/12 03:09:39;;;;;;;1.27;1.00;;;16.00;54.10;;;;;;5012636;28;20219;-61
2023/03/12 03:12:27;;;;;;;1.48;1.15;;;16.00;54.20;;;;;;5012693;28;20249;-61
2023/03/12 03:15:15;;;;;;;1.70;1.27;;;15.90;54.20;;;;;;5012730;28;20219;-63
2023/03/12 03:18:05;;;;;;;1.63;1.00;;;15.90;53.90;;;;;;5012261;28;20693;-62
2023/03/12 03:20:56;;;;;;;1.52;1.08;;;15.90;53.90;;;;;;5013144;28;20938;-60
2023/03/12 03:23:46;;;;;;;1.30;1.20;;;15.80;54.00;;;;;;5013259;28;20211;-60
2023/03/12 03:26:34;;;;;;;0.98;0.93;;;15.80;54.00;;;;;;5028068;28;20237;-62
2023/03/12 03:29:22;;;;;;;1.27;1.00;;;15.70;54.20;;;;;;5017773;28;20229;-60
2023/03/12 03:32:10;;;;;;;1.38;1.27;;;15.60;54.40;;;;;;5012448;28;20195;-61
2023/03/12 03:34:59;;;;;;;1.38;1.27;;;15.60;54.40;;;;;;5012089;28;20199;-61
2023/03/12 03:37:47;;;;;;;1.50;1.10;;;15.50;54.40;;;;;;5012121;28;20210;-64
2023/03/12 03:40:36;;;;;;;2.05;1.27;;;15.50;54.00;;;;;;5011662;28;20222;-60
2023/03/12 03:43:24;;;;;;;1.25;1.02;;;15.40;54.50;;;;;;5012374;28;20210;-63
2023/03/12 03:46:13;;;;;;;1.35;0.98;;;15.30;55.00;;;;;;5024169;28;20234;-63
2023/03/12 03:49:02;;;;;;;1.63;1.00;;;15.50;73.10;;;;;;5005548;28;20211;-60
2023/03/12 03:51:51;;;;;;;2.42;1.20;;;15.40;56.90;;;;;;4993955;28;20282;-60
2023/03/12 03:54:40;;;;;;;2.22;1.00;;;15.40;56.90;;;;;;4993494;28;20286;-60
2023/03/12 03:57:28;;;;;;;2.60;1.08;;;15.50;56.90;;;;;;4996018;28;20743;-60
2023/03/12 04:00:17;;;;;;;1.33;1.13;;;15.50;56.80;;;;;;4996681;28;20318;-62
2023/03/12 04:03:05;;;;;;;1.58;1.00;;;15.60;56.50;;;;;;4995489;28;20250;-61
2023/03/12 04:05:58;;;;;;;1.00;0.90;;;15.60;56.50;;;;;;4995470;28;20202;-61
2023/03/12 04:08:48;;;;;;;1.35;0.85;;;15.70;56.50;;;;;;4995478;28;20222;-63
2023/03/12 04:11:36;;;;;;;1.20;1.10;;;15.80;56.40;;;;;;4995262;28;20206;-61
2023/03/12 04:14:25;;;;;;;4.63;1.58;;;15.80;56.10;;;;;;4995513;28;20680;-63
2023/03/12 04:17:13;;;;;;;1.25;1.00;;;15.90;55.70;;;;;;4995351;28;20359;-63
2023/03/12 04:20:01;;;;;;;2.28;1.30;;;15.90;55.60;;;;;;4995442;28;20247;-64
2023/03/12 04:22:49;;;;;;;1.85;1.08;;;15.90;55.30;;;;;;4996062;28;20285;-63
2023/03/12 04:25:39;;;;;;;1.40;1.20;;;16.00;55.10;;;;;;4994517;28;20337;-64
2023/03/12 04:28:27;;;;;;;1.63;1.02;;;15.80;54.70;;;;;;4994823;28;20254;-61
2023/03/12 04:31:15;;;;;;;1.40;1.17;;;16.00;55.00;;;;;;5013127;28;20281;-64
2023/03/12 04:34:03;;;;;;;1.13;1.02;;;16.00;54.40;;;;;;5014097;28;20203;-63
2023/03/12 04:36:51;;;;;;;4.75;1.35;;;16.10;54.30;;;;;;5015013;28;20302;-64
2023/03/12 04:39:40;;;;;;;1.10;1.00;;;16.10;54.10;;;;;;5015414;28;20227;-63
2023/03/12 04:42:29;;;;;;;3.30;1.13;;;16.10;54.20;;;;;;5014560;28;20243;-61
2023/03/12 04:45:17;;;;;;;1.75;1.40;;;16.00;54.30;;;;;;5003861;28;20207;-61
2023/03/12 04:48:06;;;;;;;3.80;1.20;;;15.90;54.40;;;;;;4995109;28;20188;-61
2023/03/12 04:50:55;;;;;;;1.92;1.27;;;15.90;54.30;;;;;;4996200;28;20229;-61
2023/03/12 04:53:43;;;;;;;1.35;1.08;;;15.80;54.00;;;;;;4996151;28;20207;-61
2023/03/12 04:56:31;;;;;;;1.23;1.13;;;15.80;54.10;;;;;;4994991;28;20215;-61
2023/03/12 04:59:21;;;;;;;1.98;1.33;;;15.70;54.30;;;;;;4995368;28;20241;-61
2023/03/12 05:02:09;;;;;;;2.08;1.10;;;15.70;54.20;;;;;;4995935;28;20203;-61
2023/03/12 05:04:57;;;;;;;3.85;1.08;;;15.60;54.60;;;;;;4994563;28;20203;-61
2023/03/12 05:07:45;;;;;;;2.17;1.10;;;15.50;54.30;;;;;;4995238;28;20196;-61
2023/03/12 05:10:33;;;;;;;1.73;1.00;;;15.50;54.50;;;;;;4995106;28;20306;-61
2023/03/12 05:13:22;;;;;;;2.08;1.02;;;15.50;55.00;;;;;;4993304;28;20294;-61
2023/03/12 05:16:13;;;;;;;1.98;1.15;;;15.40;55.10;;;;;;4995166;28;20307;-61
2023/03/12 05:19:01;;;;;;;3.10;1.20;;;15.50;73.20;;;;;;5007421;28;20214;-65
2023/03/12 05:21:49;;;;;;;2.75;1.02;;;15.30;56.20;;;;;;5018199;28;20255;-65
2023/03/12 05:24:37;;;;;;;1.00;0.90;;;15.40;56.60;;;;;;4996536;28;20206;-61
2023/03/12 05:27:25;;;;;;;3.03;1.30;;;15.40;56.30;;;;;;4995888;28;20581;-62
2023/03/12 05:30:14;;;;;;;4.65;1.25;;;15.50;56.30;;;;;;4993081;28;20746;-61
2023/03/12 05:33:03;;;;;;;2.15;1.00;;;15.50;56.30;;;;;;4994103;28;20273;-61
2023/03/12 05:35:51;;;;;;;1.58;1.15;;;15.50;56.20;;;;;;4998629;28;20195;-63
2023/03/12 05:38:41;;;;;;;1.00;0.90;;;15.50;55.60;;;;;;5012403;28;20214;-62
2023/03/12 05:41:30;;;;;;;2.22;1.10;;;15.50;56.10;;;;;;4994656;28;20262;-62
2023/03/12 05:44:18;;;;;;;1.15;1.02;;;15.50;55.70;;;;;;4995269;28;20629;-61
2023/03/12 05:47:06;;;;;;;1.40;0.93;;;15.60;55.60;;;;;;5006896;28;20689;-61
2023/03/12 05:49:56;;;;;;;1.63;1.20;;;15.60;55.50;;;;;;5014651;28;20237;-61
2023/03/12 05:52:44;;;;;;;1.98;1.33;;;15.70;55.00;;;;;;5014010;28;20236;-61
2023/03/12 05:55:34;;;;;;;2.30;1.40;;;15.70;54.70;;;;;;5012983;28;20281;-61
2023/03/12 05:58:22;;;;;;;1.27;1.15;;;15.70;54.60;;;;;;5014536;28;20223;-61
2023/03/12 06:01:16;;;;;;;1.45;0.88;;;15.70;54.50;;;;;;5013115;28;20325;-61
2023/03/12 06:04:04;;;;;;;1.50;0.98;;;15.70;54.50;;;;;;5023880;28;20203;-64
2023/03/12 06:06:53;;;;;;;1.10;1.00;;;15.70;54.30;;;;;;5034275;28;20254;-63
2023/03/12 06:09:41;;;;;;;1.65;1.20;;;15.70;54.40;;;;;;5018206;28;20222;-61
2023/03/12 06:12:30;;;;;;;1.20;1.10;;;15.70;54.50;;;;;;5014345;28;20594;-61
2023/03/12 06:15:18;;;;;;;2.20;1.30;;;15.60;54.50;;;;;;5013762;28;20329;-60
2023/03/12 06:18:06;;;;;;;1.15;1.05;;;15.60;54.50;;;;;;5012425;28;20222;-63
2023/03/12 06:20:54;;;;;;;2.45;1.08;;;15.50;54.50;;;;;;5013436;28;20229;-61
2023/03/12 06:23:44;;;;;;;1.52;1.27;;;15.50;54.90;;;;;;5013622;28;20281;-61
2023/03/12 06:26:33;;;;;;;3.47;1.00;;;15.40;55.20;;;;;;5011632;28;20205;-60
2023/03/12 06:29:21;;;;;;;1.33;1.23;;;15.40;56.20;;;;;;5012131;28;20223;-62
2023/03/12 06:32:09;;;;;;;3.17;1.10;;;15.40;56.30;;;;;;5013546;28;20282;-62
2023/03/12 06:34:59;;;;;;;1.10;1.00;;;15.40;56.40;;;;;;5012826;28;20209;-60
2023/03/12 06:37:47;;;;;;;0.93;0.75;;;15.40;56.40;;;;;;5012540;28;20214;-61
2023/03/12 06:40:37;;;;;;;1.10;1.00;;;15.50;56.40;;;;;;5012515;28;20214;-61
2023/03/12 06:43:26;;;;;;;1.30;1.05;;;15.50;56.40;;;;;;5013493;28;20218;-61
2023/03/12 06:46:16;;;;;;;0.80;0.80;;;15.50;56.30;;;;;;5005788;28;20208;-61
2023/03/12 06:49:05;;;;;;;2.40;1.25;;;15.50;72.50;;;;;;4993290;28;20203;-61
2023/03/12 06:51:54;;;;;;;1.33;1.23;;;15.60;55.80;;;;;;4993509;28;20211;-61
2023/03/12 06:54:43;;;;;;;1.85;1.27;;;15.60;55.40;;;;;;4992946;28;20235;-60
2023/03/12 06:57:32;;;;;;;1.55;1.30;;;15.60;55.00;;;;;;5009224;28;20247;-61
2023/03/12 07:00:21;;;;;;;3.03;1.00;;;15.70;54.80;;;;;;5013307;28;20302;-64
2023/03/12 07:03:09;;;;;;;1.23;1.00;;;15.80;54.60;;;;;;5013552;28;20199;-64
2023/03/12 07:05:58;;;;;;;1.00;0.90;;;14.80;53.50;;;;;;4998650;28;20218;-61
2023/03/12 07:08:46;;;;;;;1.40;1.30;;;15.80;54.40;;;;;;4995155;28;20240;-61
2023/03/12 07:11:34;;;;;;;1.67;1.30;;;15.80;54.10;;;;;;4992432;28;20206;-61
2023/03/12 07:14:23;;;;;;;1.13;0.90;;;15.80;54.20;;;;;;4992635;28;20246;-61
2023/03/12 07:17:12;;;;;;;1.65;1.38;;;15.80;54.30;;;;;;4992504;28;20210;-60
2023/03/12 07:20:00;;;;;;;2.95;1.25;;;15.70;54.20;;;;;;4992805;28;20302;-61
2023/03/12 07:22:48;;;;;;;2.95;1.00;;;15.70;55.00;;;;;;4992909;28;20629;-61
2023/03/12 07:25:36;;;;;;;2.88;1.55;;;15.70;54.20;;;;;;4992638;28;20210;-61
2023/03/12 07:28:24;;;;;;;1.10;1.00;;;15.60;54.20;;;;;;4993089;28;20196;-62
2023/03/12 07:31:13;;;;;;;2.58;1.20;;;15.60;54.20;;;;;;4996686;28;20302;-62
2023/03/12 07:34:02;;;;;;;1.25;1.05;;;15.60;54.50;;;;;;4996963;28;20286;-61
2023/03/12 07:36:50;;;;;;;3.15;1.42;;;15.50;54.60;;;;;;4996905;28;20207;-61
2023/03/12 07:39:39;;;;;;;2.38;1.95;;;15.50;54.60;;;;;;4996384;28;20223;-61
2023/03/12 07:42:27;;;;;;;2.83;1.90;;;15.40;54.60;;;;;;4996005;28;20203;-61
2023/03/12 07:45:15;;;;;;;2.00;1.40;;;15.40;56.70;;;;;;4996209;28;20199;-61
2023/03/12 07:48:06;;;;;;;2.05;1.42;;;15.40;56.80;;;;;;4978084;28;20245;-61
2023/03/12 07:50:54;;;;;;;1.65;1.20;;;15.50;56.90;;;;;;4981775;28;20228;-61
2023/03/12 07:53:43;;;;;;;1.42;1.33;;;15.60;56.80;;;;;;4980131;28;20282;-60
2023/03/12 07:56:31;;;;;;;2.13;1.38;;;15.70;56.60;;;;;;4979012;28;20626;-64
2023/03/12 07:59:22;;;;;;;1.13;1.02;;;15.80;56.70;;;;;;4977044;28;20243;-61
2023/03/12 08:02:10;;;;;;;1.88;1.20;;;15.90;56.40;;;;;;4977011;28;20205;-61
2023/03/12 08:05:00;;;;;;;1.58;1.40;;;16.00;56.30;;;;;;4976160;28;20702;-61
2023/03/12 08:07:48;;;;;;;1.85;1.50;;;16.00;56.20;;;;;;4977056;28;20233;-61
2023/03/12 08:10:37;;;;;;;1.63;0.95;;;16.10;56.10;;;;;;4976678;28;20315;-62
2023/03/12 08:13:26;;;;;;;1.63;1.10;;;16.00;70.60;;;;;;4976329;28;20200;-62
2023/03/12 08:16:14;;;;;;;1.10;1.00;;;16.10;55.60;;;;;;4975723;28;20211;-63
2023/03/12 08:19:02;;;;;;;1.45;1.35;;;16.30;71.70;;;;;;4976640;28;20311;-62
2023/03/12 08:21:52;;;;;;;1.67;1.10;;;16.20;56.00;;;;;;4984454;28;20207;-64
2023/03/12 08:24:40;;;;;;;1.30;1.20;;;16.20;56.10;;;;;;4988255;28;20290;-62
2023/03/12 08:27:29;;;;;;;1.25;1.15;;;16.20;56.10;;;;;;4988224;28;20283;-62
2023/03/12 08:30:17;;;;;;;1.45;1.35;;;16.20;56.00;;;;;;4978617;28;20224;-62
2023/03/12 08:33:05;;;;;;;1.60;1.40;;;16.20;56.20;;;;;;4978183;28;20669;-62
2023/03/12 08:35:53;;;;;;;4.40;1.20;;;16.30;56.30;;;;;;4976773;28;20214;-62
2023/03/12 08:38:43;;;;;;;1.55;1.45;;;16.30;55.80;;;;;;4976564;28;20228;-62
2023/03/12 08:41:31;;;;;;;1.33;1.00;;;16.30;55.10;;;;;;4975586;28;20212;-61
2023/03/12 08:44:19;;;;;;;2.45;1.33;;;16.30;55.00;;;;;;4976132;28;20291;-62
2023/03/12 08:47:07;;;;;;;2.33;1.23;;;16.30;54.60;;;;;;5005063;28;20281;-62
2023/03/12 08:49:55;;;;;;;2.13;1.40;;;16.30;54.60;;;;;;5011741;28;20225;-62
2023/03/12 08:52:44;;;;;;;1.52;1.15;;;16.30;54.60;;;;;;4996207;28;20214;-62
2023/03/12 08:55:33;;;;;;;1.70;1.38;;;16.10;54.00;;;;;;4994776;28;20210;-61
2023/03/12 08:58:22;;;;;;;1.30;1.20;;;16.20;54.50;;;;;;4994832;28;20219;-62
2023/03/12 09:01:11;;;;;;;2.75;1.27;;;16.20;54.70;;;;;;4995045;28;20231;-61
2023/03/12 09:04:01;;;;;;;2.55;1.13;;;16.20;54.80;;;;;;4995000;28;20699;-62
2023/03/12 09:06:49;;;;;;;2.15;1.23;;;16.10;54.90;;;;;;4995493;28;20285;-63
2023/03/12 09:09:37;;;;;;;2.40;2.22;;;16.10;55.00;;;;;;4997080;28;20306;-62
2023/03/12 09:12:26;;;;;;;2.15;1.20;;;16.00;55.10;;;;;;4995349;28;20223;-63
2023/03/12 09:15:15;;;;;;;1.40;1.00;;;15.90;55.50;;;;;;4993884;28;20286;-63
2023/03/12 09:18:03;;;;;;;0.98;0.88;;;15.90;55.70;;;;;;4994462;28;20239;-62
2023/03/12 09:20:51;;;;;;;1.58;0.90;;;15.90;57.00;;;;;;4994002;28;20264;-61
2023/03/12 09:23:39;;;;;;;1.27;1.00;;;15.90;57.00;;;;;;4995093;28;20204;-61
2023/03/12 09:26:27;;;;;;;1.20;1.10;;;15.90;57.00;;;;;;4994396;28;20235;-62
2023/03/12 09:29:17;;;;;;;1.42;0.95;;;15.90;57.70;;;;;;4994378;28;20298;-64
2023/03/12 09:32:05;;;;;;;3.75;1.50;;;15.90;57.60;;;;;;4995264;28;20274;-62
2023/03/12 09:34:54;;;;;;;0.88;0.85;;;16.00;57.00;;;;;;5014328;28;20270;-63
2023/03/12 09:37:42;;;;;;;1.02;0.95;;;16.00;57.00;;;;;;5012433;28;20208;-63
2023/03/12 09:40:32;;;;;;;1.80;0.90;;;16.10;57.00;;;;;;4994234;28;20722;-63
2023/03/12 09:43:25;;;;;;;1.27;0.88;;;16.00;57.10;;;;;;4995560;28;20203;-63
2023/03/12 09:46:21;;;;;;;0.80;0.80;;;16.10;57.10;;;;;;5001104;28;20199;-65
2023/03/12 09:49:16;;;;;;;3.45;1.05;;;16.10;56.90;;;;;;5013771;28;20222;-63
2023/03/12 09:52:11;;;;;;;1.23;0.90;;;16.10;56.70;;;;;;5012837;28;20203;-63
2023/03/12 09:55:03;;;;;;;3.13;1.65;;;16.20;56.30;;;;;;5013409;28;20647;-63
2023/03/12 09:57:52;;;;;;;1.30;1.20;;;16.20;56.10;;;;;;5013619;28;20281;-63
2023/03/12 10:00:40;;;;;;;0.82;0.82;;;16.00;55.70;;;;;;5039564;23;20330;-65
2023/03/12 10:03:46;;;;;;;0.90;0.90;;;16.40;55.90;;;;;;5016618;28;20281;-65
2023/03/12 10:06:39;;;;;;;1.92;0.98;;;16.40;55.60;;;;;;5015478;28;20566;-65
2023/03/12 10:09:46;;;;;;;1.20;0.85;;;16.10;71.20;;;;;;5016005;28;20206;-65
2023/03/12 10:12:46;;;;;;;1.15;0.90;;;16.40;55.40;;;;;;5016043;28;20226;-67
2023/03/12 10:15:42;;;;;;;1.75;0.95;;;16.40;55.10;;;;;;5015460;28;20199;-66
2023/03/12 10:18:47;;;;;;;2.80;1.30;;;16.40;55.40;;;;;;5015377;28;20570;-66
2023/03/12 10:21:44;;;;;;;1.45;1.10;;;16.30;55.40;;;;;;5015228;28;20218;-65
2023/03/12 10:24:44;;;;;;;2.05;1.30;;;16.20;55.20;;;;;;5016102;28;20210;-65
2023/03/12 10:27:35;;;;;;;1.10;1.00;;;16.30;55.10;;;;;;5015928;28;20579;-66
2023/03/12 10:30:28;;;;;;;1.83;1.15;;;16.20;55.30;;;;;;5015339;28;20730;-65
2023/03/12 10:33:18;;;;;;;2.22;1.10;;;16.20;55.10;;;;;;5016349;28;20296;-65
2023/03/12 10:36:15;;;;;;;1.63;1.17;;;16.10;55.10;;;;;;5015219;28;20602;-66
2023/03/12 10:39:03;;;;;;;1.13;0.90;;;16.10;56.70;;;;;;5015157;28;20259;-67
2023/03/12 10:41:51;;;;;;;1.10;1.00;;;16.00;57.10;;;;;;5013540;28;20195;-67
2023/03/12 10:44:40;;;;;;;2.00;1.00;;;16.00;57.30;;;;;;5014946;28;20725;-66
2023/03/12 10:47:34;;;;;;;2.10;0.90;;;16.00;57.30;;;;;;5032357;28;20749;-66
2023/03/12 10:50:24;;;;;;;1.58;0.80;;;16.10;57.30;;;;;;5035390;28;20719;-67
2023/03/12 10:53:20;;;;;;;1.42;1.08;;;16.20;57.30;;;;;;5033655;28;20212;-67
2023/03/12 10:56:11;;;;;;;1.00;0.90;;;16.20;57.10;;;;;;5033637;28;20202;-66
2023/03/12 10:58:59;;;;;;;1.35;0.85;;;16.30;57.30;;;;;;5033244;28;20256;-66
2023/03/12 11:01:50;;;;;;;1.20;0.90;;;16.30;57.10;;;;;;5034147;28;20285;-67
2023/03/12 11:04:38;;;;;;;0.88;0.82;;;16.30;57.00;;;;;;5034384;28;20202;-66
2023/03/12 11:07:28;;;;;;;2.65;1.15;;;16.30;57.00;;;;;;5034724;28;20206;-66
2023/03/12 11:10:21;;;;;;;1.00;0.90;;;16.40;57.10;;;;;;5034070;28;20245;-65
2023/03/12 11:13:26;;;;;;;1.52;0.93;;;16.40;56.90;;;;;;5034891;28;20208;-65
2023/03/12 11:16:27;;;;;;;1.75;0.90;;;16.40;57.00;;;;;;5034173;28;20206;-67
2023/03/12 11:19:29;;;;;;;2.05;0.80;;;16.40;73.50;;;;;;5034578;28;20217;-66
2023/03/12 11:22:29;;;;;;;2.13;1.00;;;16.50;57.10;;;;;;5033647;28;20202;-66
2023/03/12 11:25:24;;;;;;;1.00;0.90;;;16.50;57.10;;;;;;5032889;28;20201;-66
2023/03/12 11:28:20;;;;;;;1.30;0.90;;;16.50;56.90;;;;;;5033782;28;20687;-66
2023/03/12 11:31:15;;;;;;;1.55;0.90;;;16.50;56.90;;;;;;5033872;28;20213;-66
2023/03/12 11:34:07;;;;;;;1.25;0.80;;;16.60;56.10;;;;;;5032908;28;20197;-66
2023/03/12 11:37:04;;;;;;;1.55;1.00;;;16.60;56.10;;;;;;5032552;28;20691;-66
2023/03/12 11:40:08;;;;;;;1.38;1.13;;;16.60;55.90;;;;;;5033085;28;20225;-66
2023/03/12 11:43:19;;;;;;;2.08;1.20;;;16.60;55.20;;;;;;5034013;28;20194;-67
2023/03/12 11:46:39;;;;;;;2.08;1.10;;;16.60;55.30;;;;;;5024008;28;20198;-67
2023/03/12 11:49:44;;;;;;;1.10;1.00;;;16.40;71.90;;;;;;5013689;28;20230;-67
2023/03/12 11:52:47;;;;;;;3.15;1.83;;;16.60;55.60;;;;;;5013640;28;20206;-66
2023/03/12 11:55:46;;;;;;;6.95;1.75;;;16.50;55.30;;;;;;5013141;28;20288;-66
2023/03/12 11:59:02;;;;;;;1.00;0.90;;;16.60;54.80;;;;;;5013798;28;20269;-66
2023/03/12 12:02:00;;;;;;;1.02;1.02;;;16.50;56.20;;;;;;5013801;28;20206;-65
2023/03/12 12:05:12;;;;;;;1.63;1.08;;;16.40;56.90;;;;;;5013831;28;20213;-66
2023/03/12 12:08:24;;;;;;;1.10;0.88;;;16.30;57.20;;;;;;5013540;28;20199;-67
2023/03/12 12:11:19;;;;;;;1.02;1.00;;;16.40;57.00;;;;;;5013444;28;20295;-66
2023/03/12 12:14:21;;;;;;;1.10;1.00;;;16.40;57.00;;;;;;5013908;28;20261;-67
2023/03/12 12:17:22;;;;;;;2.30;1.30;;;16.40;57.00;;;;;;5017876;28;20213;-65
2023/03/12 12:20:25;;;;;;;1.15;1.00;;;16.40;57.00;;;;;;5017252;28;20611;-67
2023/03/12 12:23:21;;;;;;;2.15;1.15;;;16.50;57.00;;;;;;5017771;28;20240;-65
2023/03/12 12:26:12;;;;;;;0.80;0.80;;;16.40;56.80;;;;;;5017032;28;20230;-67
2023/03/12 12:29:19;;;;;;;2.22;0.82;;;16.50;57.00;;;;;;5018022;28;20206;-67
2023/03/12 12:32:15;;;;;;;1.85;1.00;;;16.50;56.90;;;;;;5017068;28;20277;-67
2023/03/12 12:35:22;;;;;;;0.90;0.75;;;16.50;56.80;;;;;;5016299;28;20256;-66
2023/03/12 12:38:15;;;;;;;0.77;0.77;;;16.50;56.60;;;;;;5017152;28;20277;-66
2023/03/12 12:41:09;;;;;;;1.05;0.95;;;16.60;56.80;;;;;;5016921;28;20596;-67
2023/03/12 12:44:00;;;;;;;0.80;0.80;;;16.50;56.90;;;;;;5017185;28;20209;-66
2023/03/12 12:46:55;;;;;;;1.40;1.20;;;16.60;56.60;;;;;;5027567;28;20194;-67
2023/03/12 12:49:46;;;;;;;1.30;0.90;;;16.70;56.00;;;;;;5036197;28;20284;-67
2023/03/12 12:52:34;;;;;;;1.35;0.98;;;16.70;55.90;;;;;;5036182;28;20291;-66
2023/03/12 12:55:28;;;;;;;1.30;0.98;;;16.70;55.40;;;;;;5036359;28;20208;-66
2023/03/12 12:58:21;;;;;;;1.08;1.00;;;16.70;55.30;;;;;;5035402;28;20202;-66
2023/03/12 13:01:10;;;;;;;1.45;1.35;;;16.70;55.20;;;;;;5035424;28;20316;-67
2023/03/12 13:04:05;;;;;;;1.30;0.98;;;16.70;55.30;;;;;;5035206;28;20725;-66
2023/03/12 13:06:57;;;;;;;2.97;1.15;;;16.70;55.20;;;;;;5036687;28;20216;-66
2023/03/12 13:09:49;;;;;;;1.10;1.00;;;16.70;54.90;;;;;;5035508;28;20218;-66
2023/03/12 13:12:47;;;;;;;1.00;0.90;;;16.70;55.10;;;;;;5035871;28;20642;-68
2023/03/12 13:15:39;;;;;;;1.35;0.90;;;16.70;54.70;;;;;;5036413;28;20202;-67
2023/03/12 13:18:30;;;;;;;2.95;1.40;;;16.60;54.20;;;;;;5035531;28;20202;-66
2023/03/12 13:21:25;;;;;;;0.77;0.77;;;16.60;54.10;;;;;;5035438;28;20369;-66
2023/03/12 13:24:22;;;;;;;2.22;1.10;;;16.50;53.90;;;;;;5035966;28;20226;-66
2023/03/12 13:27:17;;;;;;;1.67;0.95;;;16.50;54.20;;;;;;5034464;28;20585;-66
2023/03/12 13:30:43;;;;;;;0.80;0.80;;;16.40;54.10;;;;;;5035624;28;20218;-66
2023/03/12 13:33:40;;;;;;;2.10;0.90;;;16.40;56.50;;;;;;5036539;28;20210;-66
2023/03/12 13:36:32;;;;;;;2.97;0.90;;;16.30;56.70;;;;;;5035893;28;20206;-66
2023/03/12 13:39:30;;;;;;;2.25;0.80;;;16.10;68.00;;;;;;5036514;28;20254;-65
2023/03/12 13:42:38;;;;;;;1.20;1.10;;;16.20;56.70;;;;;;5035378;28;20245;-66
2023/03/12 13:45:30;;;;;;;0.73;0.70;;;16.30;56.70;;;;;;5035168;28;20202;-67
2023/03/12 13:48:20;;;;;;;1.63;0.80;;;16.40;56.70;;;;;;5015741;28;20206;-65
2023/03/12 13:51:15;;;;;;;1.00;0.90;;;16.40;56.50;;;;;;5015076;28;20218;-66
2023/03/12 13:54:05;;;;;;;1.00;0.80;;;16.50;56.40;;;;;;5015955;28;20249;-67
2023/03/12 13:57:03;;;;;;;0.80;0.80;;;16.60;56.50;;;;;;5015052;28;20203;-67
2023/03/12 13:59:51;;;;;;;1.80;0.88;;;16.50;56.30;;;;;;5015253;28;20325;-67
2023/03/12 14:02:47;;;;;;;1.88;1.08;;;16.60;56.30;;;;;;5014636;28;20199;-67
2023/03/12 14:05:48;;;;;;;0.80;0.80;;;16.60;56.20;;;;;;5015489;28;20265;-65
2023/03/12 14:08:57;;;;;;;1.00;0.90;;;16.60;56.20;;;;;;5016446;28;20203;-67
2023/03/12 14:11:57;;;;;;;0.70;0.70;;;16.60;56.10;;;;;;5015409;28;20194;-66
2023/03/12 14:15:15;;;;;;;1.20;0.90;;;16.70;56.40;;;;;;5014662;28;20206;-66
2023/03/12 14:18:13;;;;;;;0.80;0.80;;;16.70;56.40;;;;;;5015358;28;20667;-67
2023/03/12 14:21:06;;;;;;;1.75;0.95;;;16.70;56.50;;;;;;5014565;28;20254;-66
2023/03/12 14:23:57;;;;;;;1.30;0.90;;;16.70;56.40;;;;;;5014963;28;20205;-67
2023/03/12 14:26:46;;;;;;;0.82;0.80;;;16.70;56.30;;;;;;5014174;28;20291;-67
2023/03/12 14:29:38;;;;;;;1.65;0.75;;;16.60;72.60;;;;;;5015409;28;20246;-67
2023/03/12 14:32:30;;;;;;;1.20;0.90;;;16.70;55.10;;;;;;5014692;28;20281;-65
2023/03/12 14:35:21;;;;;;;1.67;1.15;;;16.70;54.60;;;;;;5014028;28;20199;-66
2023/03/12 14:38:16;;;;;;;1.50;1.00;;;16.70;53.90;;;;;;5014031;28;20603;-66
2023/03/12 14:41:12;;;;;;;1.27;1.00;;;16.70;54.00;;;;;;5014668;28;20254;-67
2023/03/12 14:44:20;;;;;;;1.70;1.02;;;16.80;54.00;;;;;;5014553;28;20256;-65
2023/03/12 14:47:10;;;;;;;0.93;0.90;;;16.70;54.20;;;;;;5029855;28;20206;-65
2023/03/12 14:49:59;;;;;;;1.35;1.08;;;16.70;54.10;;;;;;5034132;28;20221;-66
2023/03/12 14:52:47;;;;;;;1.40;1.10;;;16.70;54.30;;;;;;5034438;28;20198;-66